Indialantic, Florida
Current Conditions -  °F | °C
As of 1:53 AM on Sunday 26 Oct 2014 (Local Time) from KMLB Reporting Station
Clear Clear  
Wind Chill: 67°   Ceiling: Unl
Heat Index: 67°   Visibility: 10mi
Dew Point: 58°   Wind: 7mph
Humidity: 73%   Direction: 330°NNW
Pressure: 29.97"   Gusts: NA
Location:  28.09°N, 80.57°W
Report Text: KMLB 260553Z AUTO 33006KT 10SM CLR 19/14 A2997 RMK AO2 SLP147 T01940144 10228 20194 58006
Loading
Personal Weather Stations






























Interactive Weather Map
Tropical Storm Tracking
New forecast layout! Learn more

10-Day Weather Forecast

Advertisements
Track Severe Weather on mobile